sensor_id;sensor_type;location;lat;lon;timestamp;temperature;humidity
7606;DHT22;3844;53.360;9.738;2022-08-01T00:00:10;18.20;95.70
7606;DHT22;3844;53.360;9.738;2022-08-01T00:02:11;18.20;95.70
7606;DHT22;3844;53.360;9.738;2022-08-01T00:04:12;18.20;95.70
7606;DHT22;3844;53.360;9.738;2022-08-01T00:06:12;18.20;95.70
7606;DHT22;3844;53.360;9.738;2022-08-01T00:08:13;18.30;95.70
7606;DHT22;3844;53.360;9.738;2022-08-01T00:10:15;18.30;95.70
7606;DHT22;3844;53.360;9.738;2022-08-01T00:12:16;18.30;95.70
7606;DHT22;3844;53.360;9.738;2022-08-01T00:14:17;18.30;95.70
7606;DHT22;3844;53.360;9.738;2022-08-01T00:16:18;18.30;95.70
7606;DHT22;3844;53.360;9.738;2022-08-01T00:18:18;18.30;95.70
7606;DHT22;3844;53.360;9.738;2022-08-01T00:20:19;18.30;95.70
7606;DHT22;3844;53.360;9.738;2022-08-01T00:22:20;18.30;95.70
7606;DHT22;3844;53.360;9.738;2022-08-01T00:28:23;18.40;95.70
7606;DHT22;3844;53.360;9.738;2022-08-01T00:30:23;18.40;95.70
7606;DHT22;3844;53.360;9.738;2022-08-01T00:32:24;18.40;95.70
7606;DHT22;3844;53.360;9.738;2022-08-01T00:34:25;18.40;95.70
7606;DHT22;3844;53.360;9.738;2022-08-01T00:36:25;18.40;95.70
7606;DHT22;3844;53.360;9.738;2022-08-01T00:38:26;18.40;95.70
7606;DHT22;3844;53.360;9.738;2022-08-01T00:40:27;18.40;95.70
7606;DHT22;3844;53.360;9.738;2022-08-01T00:42:27;18.40;95.70
7606;DHT22;3844;53.360;9.738;2022-08-01T00:44:28;18.40;95.70
7606;DHT22;3844;53.360;9.738;2022-08-01T00:46:29;18.40;95.70
7606;DHT22;3844;53.360;9.738;2022-08-01T00:48:29;18.40;95.70
7606;DHT22;3844;53.360;9.738;2022-08-01T00:52:32;18.40;95.70
7606;DHT22;3844;53.360;9.738;2022-08-01T00:54:33;18.40;95.70
7606;DHT22;3844;53.360;9.738;2022-08-01T00:56:34;18.40;95.70
7606;DHT22;3844;53.360;9.738;2022-08-01T00:58:35;18.40;95.70
7606;DHT22;3844;53.360;9.738;2022-08-01T01:00:37;18.40;95.70
7606;DHT22;3844;53.360;9.738;2022-08-01T01:02:37;18.40;95.70
7606;DHT22;3844;53.360;9.738;2022-08-01T01:04:38;18.40;95.70
7606;DHT22;3844;53.360;9.738;2022-08-01T01:14:10;18.40;95.70
7606;DHT22;3844;53.360;9.738;2022-08-01T01:16:15;18.40;95.70
7606;DHT22;3844;53.360;9.738;2022-08-01T01:18:24;18.30;95.70
7606;DHT22;3844;53.360;9.738;2022-08-01T01:20:40;18.40;95.70
7606;DHT22;3844;53.360;9.738;2022-08-01T01:22:50;18.40;95.70
7606;DHT22;3844;53.360;9.738;2022-08-01T01:28:08;18.30;95.70
7606;DHT22;3844;53.360;9.738;2022-08-01T01:30:06;18.30;95.70
7606;DHT22;3844;53.360;9.738;2022-08-01T01:32:19;18.30;95.70
7606;DHT22;3844;53.360;9.738;2022-08-01T01:34:24;18.30;95.70
7606;DHT22;3844;53.360;9.738;2022-08-01T01:36:26;18.30;95.70
7606;DHT22;3844;53.360;9.738;2022-08-01T01:38:31;18.20;95.70
7606;DHT22;3844;53.360;9.738;2022-08-01T01:40:33;18.20;95.70
7606;DHT22;3844;53.360;9.738;2022-08-01T01:42:34;18.20;95.70
7606;DHT22;3844;53.360;9.738;2022-08-01T01:44:37;18.20;95.70
7606;DHT22;3844;53.360;9.738;2022-08-01T01:46:39;18.20;95.70
7606;DHT22;3844;53.360;9.738;2022-08-01T01:48:43;18.20;95.70
7606;DHT22;3844;53.360;9.738;2022-08-01T01:50:46;18.20;95.70
7606;DHT22;3844;53.360;9.738;2022-08-01T01:52:48;18.10;95.70
7606;DHT22;3844;53.360;9.738;2022-08-01T01:54:50;18.10;95.70
7606;DHT22;3844;53.360;9.738;2022-08-01T01:56:52;18.10;95.70
7606;DHT22;3844;53.360;9.738;2022-08-01T01:59:01;18.00;95.70
7606;DHT22;3844;53.360;9.738;2022-08-01T02:01:03;18.00;95.70
7606;DHT22;3844;53.360;9.738;2022-08-01T02:03:06;18.00;95.70
7606;DHT22;3844;53.360;9.738;2022-08-01T02:05:10;18.00;95.70
7606;DHT22;3844;53.360;9.738;2022-08-01T02:07:14;18.00;95.70
7606;DHT22;3844;53.360;9.738;2022-08-01T02:09:18;18.00;95.70
7606;DHT22;3844;53.360;9.738;2022-08-01T02:11:20;18.00;95.70
7606;DHT22;3844;53.360;9.738;2022-08-01T02:13:22;18.00;95.70
7606;DHT22;3844;53.360;9.738;2022-08-01T02:15:23;17.90;95.70
7606;DHT22;3844;53.360;9.738;2022-08-01T02:17:24;17.90;95.70
7606;DHT22;3844;53.360;9.738;2022-08-01T02:19:25;17.90;95.70
7606;DHT22;3844;53.360;9.738;2022-08-01T02:21:37;17.90;95.70
7606;DHT22;3844;53.360;9.738;2022-08-01T02:23:40;17.90;95.70
7606;DHT22;3844;53.360;9.738;2022-08-01T02:25:52;17.90;95.70
7606;DHT22;3844;53.360;9.738;2022-08-01T02:28:03;17.90;95.70
7606;DHT22;3844;53.360;9.738;2022-08-01T02:30:07;17.90;95.70
7606;DHT22;3844;53.360;9.738;2022-08-01T02:32:20;17.90;95.70
7606;DHT22;3844;53.360;9.738;2022-08-01T02:34:22;17.90;95.70
7606;DHT22;3844;53.360;9.738;2022-08-01T02:36:26;17.90;95.70
7606;DHT22;3844;53.360;9.738;2022-08-01T02:38:29;17.90;95.70
7606;DHT22;3844;53.360;9.738;2022-08-01T02:40:33;17.80;95.70
7606;DHT22;3844;53.360;9.738;2022-08-01T02:42:39;17.80;95.70
7606;DHT22;3844;53.360;9.738;2022-08-01T02:44:44;17.80;95.70
7606;DHT22;3844;53.360;9.738;2022-08-01T02:46:56;17.80;95.70
7606;DHT22;3844;53.360;9.738;2022-08-01T02:49:01;17.80;95.70
7606;DHT22;3844;53.360;9.738;2022-08-01T02:51:03;17.80;95.70
7606;DHT22;3844;53.360;9.738;2022-08-01T02:53:05;17.80;95.70
7606;DHT22;3844;53.360;9.738;2022-08-01T02:55:09;17.80;95.70
7606;DHT22;3844;53.360;9.738;2022-08-01T02:57:12;17.80;95.70
7606;DHT22;3844;53.360;9.738;2022-08-01T02:59:16;17.80;95.70
7606;DHT22;3844;53.360;9.738;2022-08-01T03:01:18;17.80;95.70
7606;DHT22;3844;53.360;9.738;2022-08-01T03:03:20;17.80;95.70
7606;DHT22;3844;53.360;9.738;2022-08-01T03:05:22;17.80;95.70
7606;DHT22;3844;53.360;9.738;2022-08-01T03:07:23;17.70;95.70
7606;DHT22;3844;53.360;9.738;2022-08-01T03:09:26;17.70;95.70
7606;DHT22;3844;53.360;9.738;2022-08-01T03:11:29;17.70;95.70
7606;DHT22;3844;53.360;9.738;2022-08-01T03:13:32;17.70;95.70
7606;DHT22;3844;53.360;9.738;2022-08-01T03:15:35;17.70;95.70
7606;DHT22;3844;53.360;9.738;2022-08-01T03:17:40;17.70;95.70
7606;DHT22;3844;53.360;9.738;2022-08-01T03:19:44;17.70;95.70
7606;DHT22;3844;53.360;9.738;2022-08-01T03:21:47;17.70;95.70
7606;DHT22;3844;53.360;9.738;2022-08-01T03:23:50;17.70;95.70
7606;DHT22;3844;53.360;9.738;2022-08-01T03:25:57;17.70;95.70
7606;DHT22;3844;53.360;9.738;2022-08-01T03:28:01;17.70;95.70
7606;DHT22;3844;53.360;9.738;2022-08-01T03:30:03;17.70;95.70
7606;DHT22;3844;53.360;9.738;2022-08-01T03:32:06;17.70;95.70
7606;DHT22;3844;53.360;9.738;2022-08-01T03:34:06;17.70;95.70
7606;DHT22;3844;53.360;9.738;2022-08-01T03:36:09;17.70;95.70
7606;DHT22;3844;53.360;9.738;2022-08-01T03:38:11;17.60;95.70
7606;DHT22;3844;53.360;9.738;2022-08-01T03:40:22;17.60;95.70
7606;DHT22;3844;53.360;9.738;2022-08-01T03:42:31;17.60;95.70
7606;DHT22;3844;53.360;9.738;2022-08-01T03:44:33;17.60;95.70
7606;DHT22;3844;53.360;9.738;2022-08-01T03:46:43;17.60;95.70
7606;DHT22;3844;53.360;9.738;2022-08-01T03:48:48;17.60;95.70
7606;DHT22;3844;53.360;9.738;2022-08-01T03:50:51;17.60;95.70
7606;DHT22;3844;53.360;9.738;2022-08-01T03:52:53;17.60;95.70
7606;DHT22;3844;53.360;9.738;2022-08-01T03:54:56;17.60;95.70
7606;DHT22;3844;53.360;9.738;2022-08-01T03:56:58;17.60;95.70
7606;DHT22;3844;53.360;9.738;2022-08-01T03:59:01;17.60;95.70
7606;DHT22;3844;53.360;9.738;2022-08-01T04:01:05;17.60;95.70
7606;DHT22;3844;53.360;9.738;2022-08-01T04:03:07;17.60;95.70
7606;DHT22;3844;53.360;9.738;2022-08-01T04:05:09;17.60;95.70
7606;DHT22;3844;53.360;9.738;2022-08-01T04:07:45;17.60;95.70
7606;DHT22;3844;53.360;9.738;2022-08-01T04:09:46;17.60;95.70
7606;DHT22;3844;53.360;9.738;2022-08-01T04:11:48;17.60;95.70
7606;DHT22;3844;53.360;9.738;2022-08-01T04:13:48;17.60;95.70
7606;DHT22;3844;53.360;9.738;2022-08-01T04:15:49;17.60;95.70
7606;DHT22;3844;53.360;9.738;2022-08-01T04:17:50;17.60;95.70
7606;DHT22;3844;53.360;9.738;2022-08-01T04:19:50;17.60;95.70
7606;DHT22;3844;53.360;9.738;2022-08-01T04:21:51;17.60;95.70
7606;DHT22;3844;53.360;9.738;2022-08-01T04:23:53;17.60;95.70
7606;DHT22;3844;53.360;9.738;2022-08-01T04:25:55;17.60;95.70
7606;DHT22;3844;53.360;9.738;2022-08-01T04:27:59;17.60;95.70
7606;DHT22;3844;53.360;9.738;2022-08-01T04:30:00;17.70;95.70
7606;DHT22;3844;53.360;9.738;2022-08-01T04:32:02;17.70;95.70
7606;DHT22;3844;53.360;9.738;2022-08-01T04:34:05;17.70;95.70
7606;DHT22;3844;53.360;9.738;2022-08-01T04:36:06;17.70;95.70
7606;DHT22;3844;53.360;9.738;2022-08-01T04:38:09;17.70;95.70
7606;DHT22;3844;53.360;9.738;2022-08-01T04:40:11;17.70;95.70
7606;DHT22;3844;53.360;9.738;2022-08-01T04:42:13;17.70;95.70
7606;DHT22;3844;53.360;9.738;2022-08-01T04:44:15;17.70;95.70
7606;DHT22;3844;53.360;9.738;2022-08-01T04:46:17;17.70;95.70
7606;DHT22;3844;53.360;9.738;2022-08-01T04:48:19;17.70;95.70
7606;DHT22;3844;53.360;9.738;2022-08-01T04:50:21;17.70;95.70
7606;DHT22;3844;53.360;9.738;2022-08-01T04:52:22;17.70;95.70
7606;DHT22;3844;53.360;9.738;2022-08-01T04:54:34;17.70;95.70
7606;DHT22;3844;53.360;9.738;2022-08-01T04:56:38;17.60;95.70
7606;DHT22;3844;53.360;9.738;2022-08-01T04:58:42;17.60;95.70
7606;DHT22;3844;53.360;9.738;2022-08-01T05:00:43;17.60;95.70
7606;DHT22;3844;53.360;9.738;2022-08-01T05:02:44;17.60;95.70
7606;DHT22;3844;53.360;9.738;2022-08-01T05:04:46;17.70;95.70
7606;DHT22;3844;53.360;9.738;2022-08-01T05:06:47;17.70;95.70
7606;DHT22;3844;53.360;9.738;2022-08-01T05:08:47;17.80;95.70
7606;DHT22;3844;53.360;9.738;2022-08-01T05:10:48;17.80;95.70
7606;DHT22;3844;53.360;9.738;2022-08-01T05:12:49;17.80;95.70
7606;DHT22;3844;53.360;9.738;2022-08-01T05:14:50;17.80;95.70
7606;DHT22;3844;53.360;9.738;2022-08-01T05:16:52;17.80;95.70
7606;DHT22;3844;53.360;9.738;2022-08-01T05:18:53;17.90;95.70
7606;DHT22;3844;53.360;9.738;2022-08-01T05:20:53;17.90;95.70
7606;DHT22;3844;53.360;9.738;2022-08-01T05:22:54;17.90;95.70
7606;DHT22;3844;53.360;9.738;2022-08-01T05:24:55;18.00;95.70
7606;DHT22;3844;53.360;9.738;2022-08-01T05:26:56;18.00;95.70
7606;DHT22;3844;53.360;9.738;2022-08-01T05:28:57;18.00;95.70
7606;DHT22;3844;53.360;9.738;2022-08-01T05:30:58;18.10;95.70
7606;DHT22;3844;53.360;9.738;2022-08-01T05:32:59;18.00;95.70
7606;DHT22;3844;53.360;9.738;2022-08-01T05:34:59;18.00;95.70
7606;DHT22;3844;53.360;9.738;2022-08-01T05:37:00;18.00;95.70
7606;DHT22;3844;53.360;9.738;2022-08-01T05:39:01;18.00;95.70
7606;DHT22;3844;53.360;9.738;2022-08-01T05:41:02;18.10;95.70
7606;DHT22;3844;53.360;9.738;2022-08-01T05:43:02;18.10;95.70
7606;DHT22;3844;53.360;9.738;2022-08-01T05:45:03;18.10;95.70
7606;DHT22;3844;53.360;9.738;2022-08-01T05:47:04;18.20;95.70
7606;DHT22;3844;53.360;9.738;2022-08-01T05:49:05;18.20;95.70
7606;DHT22;3844;53.360;9.738;2022-08-01T05:51:06;18.20;95.70
7606;DHT22;3844;53.360;9.738;2022-08-01T05:53:06;18.30;95.70
7606;DHT22;3844;53.360;9.738;2022-08-01T05:55:07;18.40;95.70
7606;DHT22;3844;53.360;9.738;2022-08-01T05:57:09;18.40;95.70
7606;DHT22;3844;53.360;9.738;2022-08-01T05:59:10;18.50;95.70
7606;DHT22;3844;53.360;9.738;2022-08-01T06:01:12;18.50;95.70
7606;DHT22;3844;53.360;9.738;2022-08-01T06:03:15;18.60;95.70
7606;DHT22;3844;53.360;9.738;2022-08-01T06:05:16;18.60;95.70
7606;DHT22;3844;53.360;9.738;2022-08-01T06:07:17;18.60;95.70
7606;DHT22;3844;53.360;9.738;2022-08-01T06:09:17;18.60;95.70
7606;DHT22;3844;53.360;9.738;2022-08-01T06:11:18;18.60;95.70
7606;DHT22;3844;53.360;9.738;2022-08-01T06:13:19;18.60;95.70
7606;DHT22;3844;53.360;9.738;2022-08-01T06:15:20;18.60;95.70
7606;DHT22;3844;53.360;9.738;2022-08-01T06:17:20;18.50;95.70
7606;DHT22;3844;53.360;9.738;2022-08-01T06:19:21;18.50;95.70
7606;DHT22;3844;53.360;9.738;2022-08-01T06:21:22;18.50;95.70
7606;DHT22;3844;53.360;9.738;2022-08-01T06:23:22;18.50;95.70
7606;DHT22;3844;53.360;9.738;2022-08-01T06:25:23;18.60;95.70
7606;DHT22;3844;53.360;9.738;2022-08-01T06:27:24;18.60;95.70
7606;DHT22;3844;53.360;9.738;2022-08-01T06:29:30;18.60;95.70
7606;DHT22;3844;53.360;9.738;2022-08-01T06:31:32;18.60;95.70
7606;DHT22;3844;53.360;9.738;2022-08-01T06:33:32;18.50;95.70
7606;DHT22;3844;53.360;9.738;2022-08-01T06:35:33;18.50;95.70
7606;DHT22;3844;53.360;9.738;2022-08-01T06:39:35;18.50;95.70
7606;DHT22;3844;53.360;9.738;2022-08-01T06:41:35;18.40;95.70
7606;DHT22;3844;53.360;9.738;2022-08-01T06:43:36;18.30;95.70
7606;DHT22;3844;53.360;9.738;2022-08-01T06:45:38;18.30;95.70
7606;DHT22;3844;53.360;9.738;2022-08-01T06:47:40;18.30;95.70
7606;DHT22;3844;53.360;9.738;2022-08-01T06:49:41;18.20;95.70
7606;DHT22;3844;53.360;9.738;2022-08-01T06:51:42;18.20;95.70
7606;DHT22;3844;53.360;9.738;2022-08-01T06:55:43;18.10;95.70
7606;DHT22;3844;53.360;9.738;2022-08-01T06:57:49;18.10;95.70
7606;DHT22;3844;53.360;9.738;2022-08-01T06:59:50;18.10;95.70
7606;DHT22;3844;53.360;9.738;2022-08-01T07:01:51;18.10;95.70
7606;DHT22;3844;53.360;9.738;2022-08-01T07:03:52;18.10;95.70
7606;DHT22;3844;53.360;9.738;2022-08-01T07:07:54;18.10;95.70
7606;DHT22;3844;53.360;9.738;2022-08-01T07:12:02;18.10;95.70
7606;DHT22;3844;53.360;9.738;2022-08-01T07:14:06;18.10;95.70
7606;DHT22;3844;53.360;9.738;2022-08-01T07:16:32;18.00;95.70
7606;DHT22;3844;53.360;9.738;2022-08-01T07:18:42;18.00;95.70
7606;DHT22;3844;53.360;9.738;2022-08-01T07:20:49;18.10;95.70
7606;DHT22;3844;53.360;9.738;2022-08-01T07:22:56;18.10;95.70
7606;DHT22;3844;53.360;9.738;2022-08-01T07:25:06;18.20;95.70
7606;DHT22;3844;53.360;9.738;2022-08-01T07:27:07;18.30;95.70
7606;DHT22;3844;53.360;9.738;2022-08-01T07:29:10;18.50;95.70
7606;DHT22;3844;53.360;9.738;2022-08-01T07:31:17;18.50;95.70
7606;DHT22;3844;53.360;9.738;2022-08-01T07:33:21;18.60;95.60
7606;DHT22;3844;53.360;9.738;2022-08-01T07:35:22;18.70;95.70
7606;DHT22;3844;53.360;9.738;2022-08-01T07:37:23;18.80;94.70
7606;DHT22;3844;53.360;9.738;2022-08-01T07:43:28;18.80;95.00
7606;DHT22;3844;53.360;9.738;2022-08-01T07:45:30;18.80;93.40
7606;DHT22;3844;53.360;9.738;2022-08-01T07:47:31;18.80;93.30
7606;DHT22;3844;53.360;9.738;2022-08-01T07:51:41;18.80;92.80
7606;DHT22;3844;53.360;9.738;2022-08-01T07:55:43;18.70;93.30
7606;DHT22;3844;53.360;9.738;2022-08-01T07:59:47;19.00;93.60
7606;DHT22;3844;53.360;9.738;2022-08-01T08:01:58;19.30;93.60
7606;DHT22;3844;53.360;9.738;2022-08-01T08:03:59;19.50;92.50
7606;DHT22;3844;53.360;9.738;2022-08-01T08:05:59;19.60;91.60
7606;DHT22;3844;53.360;9.738;2022-08-01T08:08:04;19.60;91.20
7606;DHT22;3844;53.360;9.738;2022-08-01T08:10:05;19.60;90.30
7606;DHT22;3844;53.360;9.738;2022-08-01T08:12:06;19.60;90.50
7606;DHT22;3844;53.360;9.738;2022-08-01T08:14:07;19.60;89.10
7606;DHT22;3844;53.360;9.738;2022-08-01T08:18:10;19.40;90.10
7606;DHT22;3844;53.360;9.738;2022-08-01T08:20:11;19.30;89.20
7606;DHT22;3844;53.360;9.738;2022-08-01T08:22:11;19.10;90.70
7606;DHT22;3844;53.360;9.738;2022-08-01T08:24:14;19.10;91.30
7606;DHT22;3844;53.360;9.738;2022-08-01T08:26:20;19.10;90.50
7606;DHT22;3844;53.360;9.738;2022-08-01T08:28:26;19.20;91.40
7606;DHT22;3844;53.360;9.738;2022-08-01T08:30:50;19.40;90.90
7606;DHT22;3844;53.360;9.738;2022-08-01T08:33:22;19.60;90.50
7606;DHT22;3844;53.360;9.738;2022-08-01T08:36:08;19.80;87.90
7606;DHT22;3844;53.360;9.738;2022-08-01T08:38:25;20.00;88.10
7606;DHT22;3844;53.360;9.738;2022-08-01T08:46:18;20.50;85.00
7606;DHT22;3844;53.360;9.738;2022-08-01T08:51:00;20.30;86.20
7606;DHT22;3844;53.360;9.738;2022-08-01T08:53:31;20.60;87.50
7606;DHT22;3844;53.360;9.738;2022-08-01T08:55:52;21.10;80.50
7606;DHT22;3844;53.360;9.738;2022-08-01T08:58:26;21.20;79.90
7606;DHT22;3844;53.360;9.738;2022-08-01T09:02:53;22.00;79.50
7606;DHT22;3844;53.360;9.738;2022-08-01T09:04:56;23.10;76.50
7606;DHT22;3844;53.360;9.738;2022-08-01T09:06:57;24.00;71.90
7606;DHT22;3844;53.360;9.738;2022-08-01T09:08:59;24.40;70.90
7606;DHT22;3844;53.360;9.738;2022-08-01T09:10:59;24.40;71.70
7606;DHT22;3844;53.360;9.738;2022-08-01T09:15:13;24.00;72.00
7606;DHT22;3844;53.360;9.738;2022-08-01T09:17:14;23.80;71.60
7606;DHT22;3844;53.360;9.738;2022-08-01T09:19:19;23.50;73.00
7606;DHT22;3844;53.360;9.738;2022-08-01T09:21:21;23.20;71.90
7606;DHT22;3844;53.360;9.738;2022-08-01T09:23:37;23.00;73.80
7606;DHT22;3844;53.360;9.738;2022-08-01T09:25:52;23.50;73.80
7606;DHT22;3844;53.360;9.738;2022-08-01T09:28:03;24.50;73.40
7606;DHT22;3844;53.360;9.738;2022-08-01T09:30:13;25.30;70.20
7606;DHT22;3844;53.360;9.738;2022-08-01T09:32:14;25.90;66.40
7606;DHT22;3844;53.360;9.738;2022-08-01T09:34:16;26.20;64.80
7606;DHT22;3844;53.360;9.738;2022-08-01T09:36:17;25.90;65.30
7606;DHT22;3844;53.360;9.738;2022-08-01T09:38:20;25.40;66.60
7606;DHT22;3844;53.360;9.738;2022-08-01T09:40:21;25.40;66.70
7606;DHT22;3844;53.360;9.738;2022-08-01T09:42:24;25.90;66.40
7606;DHT22;3844;53.360;9.738;2022-08-01T09:44:39;26.30;65.60
7606;DHT22;3844;53.360;9.738;2022-08-01T09:46:59;26.20;64.30
7606;DHT22;3844;53.360;9.738;2022-08-01T09:49:04;25.90;63.80
7606;DHT22;3844;53.360;9.738;2022-08-01T09:51:06;25.40;64.60
7606;DHT22;3844;53.360;9.738;2022-08-01T09:53:09;25.20;64.30
7606;DHT22;3844;53.360;9.738;2022-08-01T09:55:10;25.30;65.60
7606;DHT22;3844;53.360;9.738;2022-08-01T09:57:13;25.70;65.80
7606;DHT22;3844;53.360;9.738;2022-08-01T09:59:14;26.30;61.80
7606;DHT22;3844;53.360;9.738;2022-08-01T10:01:15;26.70;63.80
7606;DHT22;3844;53.360;9.738;2022-08-01T10:03:24;27.00;62.60
7606;DHT22;3844;53.360;9.738;2022-08-01T10:05:32;26.90;61.40
7606;DHT22;3844;53.360;9.738;2022-08-01T10:07:34;26.80;63.40
7606;DHT22;3844;53.360;9.738;2022-08-01T10:09:36;26.80;61.10
7606;DHT22;3844;53.360;9.738;2022-08-01T10:11:38;27.20;61.90
7606;DHT22;3844;53.360;9.738;2022-08-01T10:13:40;27.90;60.70
7606;DHT22;3844;53.360;9.738;2022-08-01T10:15:41;28.40;58.60
7606;DHT22;3844;53.360;9.738;2022-08-01T10:17:47;28.90;58.50
7606;DHT22;3844;53.360;9.738;2022-08-01T10:19:50;28.90;56.60
7606;DHT22;3844;53.360;9.738;2022-08-01T10:21:56;28.40;57.90
7606;DHT22;3844;53.360;9.738;2022-08-01T10:23:58;27.80;57.00
7606;DHT22;3844;53.360;9.738;2022-08-01T10:26:00;27.80;57.00
7606;DHT22;3844;53.360;9.738;2022-08-01T10:28:08;26.80;58.70
7606;DHT22;3844;53.360;9.738;2022-08-01T10:30:10;26.80;59.00
7606;DHT22;3844;53.360;9.738;2022-08-01T10:32:11;27.20;58.70
7606;DHT22;3844;53.360;9.738;2022-08-01T10:34:13;27.60;57.80
7606;DHT22;3844;53.360;9.738;2022-08-01T10:36:25;28.20;56.30
7606;DHT22;3844;53.360;9.738;2022-08-01T10:38:27;28.50;55.40
7606;DHT22;3844;53.360;9.738;2022-08-01T10:40:28;28.60;54.40
7606;DHT22;3844;53.360;9.738;2022-08-01T10:42:30;28.80;53.00
7606;DHT22;3844;53.360;9.738;2022-08-01T10:44:31;29.00;53.90
7606;DHT22;3844;53.360;9.738;2022-08-01T10:46:34;29.20;55.40
7606;DHT22;3844;53.360;9.738;2022-08-01T10:48:57;29.70;53.70
7606;DHT22;3844;53.360;9.738;2022-08-01T10:51:03;29.80;53.60
7606;DHT22;3844;53.360;9.738;2022-08-01T10:55:13;29.40;54.10
7606;DHT22;3844;53.360;9.738;2022-08-01T10:57:14;29.20;54.10
7606;DHT22;3844;53.360;9.738;2022-08-01T10:59:21;28.60;53.30
7606;DHT22;3844;53.360;9.738;2022-08-01T11:01:40;28.20;55.30
7606;DHT22;3844;53.360;9.738;2022-08-01T11:03:42;28.10;55.30
7606;DHT22;3844;53.360;9.738;2022-08-01T11:05:43;28.20;55.80
7606;DHT22;3844;53.360;9.738;2022-08-01T11:07:48;28.70;54.20
7606;DHT22;3844;53.360;9.738;2022-08-01T11:12:16;29.10;52.30
7606;DHT22;3844;53.360;9.738;2022-08-01T11:14:17;29.10;52.30
7606;DHT22;3844;53.360;9.738;2022-08-01T11:16:32;28.90;54.10
7606;DHT22;3844;53.360;9.738;2022-08-01T11:18:32;28.90;51.90
7606;DHT22;3844;53.360;9.738;2022-08-01T11:20:35;29.10;54.80
7606;DHT22;3844;53.360;9.738;2022-08-01T11:24:57;29.00;52.20
7606;DHT22;3844;53.360;9.738;2022-08-01T11:27:37;29.20;53.90
7606;DHT22;3844;53.360;9.738;2022-08-01T11:29:38;29.60;52.80
7606;DHT22;3844;53.360;9.738;2022-08-01T11:31:38;29.80;50.80
7606;DHT22;3844;53.360;9.738;2022-08-01T11:38:28;30.40;51.80
7606;DHT22;3844;53.360;9.738;2022-08-01T11:40:30;30.50;51.10
7606;DHT22;3844;53.360;9.738;2022-08-01T11:42:31;30.40;50.10
7606;DHT22;3844;53.360;9.738;2022-08-01T11:44:48;30.40;50.50
7606;DHT22;3844;53.360;9.738;2022-08-01T11:49:32;30.90;49.70
7606;DHT22;3844;53.360;9.738;2022-08-01T11:51:34;31.00;50.90
7606;DHT22;3844;53.360;9.738;2022-08-01T11:53:35;31.10;50.60
7606;DHT22;3844;53.360;9.738;2022-08-01T11:55:45;30.90;47.20
7606;DHT22;3844;53.360;9.738;2022-08-01T11:57:46;30.10;49.40
7606;DHT22;3844;53.360;9.738;2022-08-01T11:59:52;29.80;51.40
7606;DHT22;3844;53.360;9.738;2022-08-01T12:01:53;29.50;51.30
7606;DHT22;3844;53.360;9.738;2022-08-01T12:03:56;29.40;50.60
7606;DHT22;3844;53.360;9.738;2022-08-01T12:07:58;29.40;51.40
7606;DHT22;3844;53.360;9.738;2022-08-01T12:10:00;29.50;50.50
7606;DHT22;3844;53.360;9.738;2022-08-01T12:12:01;29.50;50.50
7606;DHT22;3844;53.360;9.738;2022-08-01T12:14:02;29.20;51.20
7606;DHT22;3844;53.360;9.738;2022-08-01T12:16:07;29.30;50.30
7606;DHT22;3844;53.360;9.738;2022-08-01T12:18:08;29.30;49.80
7606;DHT22;3844;53.360;9.738;2022-08-01T12:20:11;29.30;51.30
7606;DHT22;3844;53.360;9.738;2022-08-01T12:22:13;29.60;51.30
7606;DHT22;3844;53.360;9.738;2022-08-01T12:24:22;29.80;49.20
7606;DHT22;3844;53.360;9.738;2022-08-01T12:26:23;29.80;50.70
7606;DHT22;3844;53.360;9.738;2022-08-01T12:28:23;30.00;49.90
7606;DHT22;3844;53.360;9.738;2022-08-01T12:30:25;30.10;48.60
7606;DHT22;3844;53.360;9.738;2022-08-01T12:32:34;30.00;48.70
7606;DHT22;3844;53.360;9.738;2022-08-01T12:34:36;29.80;50.30
7606;DHT22;3844;53.360;9.738;2022-08-01T12:36:38;29.80;49.30
7606;DHT22;3844;53.360;9.738;2022-08-01T12:40:41;29.90;51.10
7606;DHT22;3844;53.360;9.738;2022-08-01T12:42:44;30.10;50.30
7606;DHT22;3844;53.360;9.738;2022-08-01T12:44:48;29.70;49.40
7606;DHT22;3844;53.360;9.738;2022-08-01T12:46:52;29.70;50.20
7606;DHT22;3844;53.360;9.738;2022-08-01T12:48:53;29.40;49.40
7606;DHT22;3844;53.360;9.738;2022-08-01T12:50:55;28.90;50.10
7606;DHT22;3844;53.360;9.738;2022-08-01T12:52:58;28.40;53.00
7606;DHT22;3844;53.360;9.738;2022-08-01T12:55:07;28.10;53.60
7606;DHT22;3844;53.360;9.738;2022-08-01T12:57:22;28.20;53.20
7606;DHT22;3844;53.360;9.738;2022-08-01T12:59:26;28.00;52.50
7606;DHT22;3844;53.360;9.738;2022-08-01T13:01:27;27.90;52.10
7606;DHT22;3844;53.360;9.738;2022-08-01T13:03:28;27.80;53.30
7606;DHT22;3844;53.360;9.738;2022-08-01T13:07:47;28.00;51.20
7606;DHT22;3844;53.360;9.738;2022-08-01T13:09:51;27.90;51.90
7606;DHT22;3844;53.360;9.738;2022-08-01T13:11:51;27.80;51.70
7606;DHT22;3844;53.360;9.738;2022-08-01T13:16:04;27.50;53.30
7606;DHT22;3844;53.360;9.738;2022-08-01T13:18:25;27.10;52.70
7606;DHT22;3844;53.360;9.738;2022-08-01T13:20:32;26.70;54.40
7606;DHT22;3844;53.360;9.738;2022-08-01T13:22:35;26.50;56.00
7606;DHT22;3844;53.360;9.738;2022-08-01T13:24:36;26.80;54.90
7606;DHT22;3844;53.360;9.738;2022-08-01T13:29:04;27.10;53.20
7606;DHT22;3844;53.360;9.738;2022-08-01T13:31:07;27.20;53.10
7606;DHT22;3844;53.360;9.738;2022-08-01T13:33:07;27.40;54.60
7606;DHT22;3844;53.360;9.738;2022-08-01T13:35:10;27.50;51.50
7606;DHT22;3844;53.360;9.738;2022-08-01T13:37:12;27.30;54.10
7606;DHT22;3844;53.360;9.738;2022-08-01T13:39:13;27.40;53.90
7606;DHT22;3844;53.360;9.738;2022-08-01T13:41:35;27.50;52.70
7606;DHT22;3844;53.360;9.738;2022-08-01T13:45:37;27.20;53.20
7606;DHT22;3844;53.360;9.738;2022-08-01T13:47:39;27.20;54.50
7606;DHT22;3844;53.360;9.738;2022-08-01T13:49:39;27.30;54.10
7606;DHT22;3844;53.360;9.738;2022-08-01T13:51:40;27.60;53.70
7606;DHT22;3844;53.360;9.738;2022-08-01T13:55:42;27.50;52.10
7606;DHT22;3844;53.360;9.738;2022-08-01T13:57:42;27.50;53.30
7606;DHT22;3844;53.360;9.738;2022-08-01T13:59:43;27.40;51.80
7606;DHT22;3844;53.360;9.738;2022-08-01T14:01:44;26.80;53.20
7606;DHT22;3844;53.360;9.738;2022-08-01T14:03:45;26.40;53.50
7606;DHT22;3844;53.360;9.738;2022-08-01T14:05:46;26.00;54.00
7606;DHT22;3844;53.360;9.738;2022-08-01T14:07:47;25.40;56.40
7606;DHT22;3844;53.360;9.738;2022-08-01T14:09:48;25.20;56.40
7606;DHT22;3844;53.360;9.738;2022-08-01T14:11:49;25.00;56.50
7606;DHT22;3844;53.360;9.738;2022-08-01T14:13:49;24.70;56.30
7606;DHT22;3844;53.360;9.738;2022-08-01T14:15:51;24.80;57.30
7606;DHT22;3844;53.360;9.738;2022-08-01T14:17:52;25.10;57.10
7606;DHT22;3844;53.360;9.738;2022-08-01T14:19:53;25.20;56.10
7606;DHT22;3844;53.360;9.738;2022-08-01T14:21:53;25.00;56.70
7606;DHT22;3844;53.360;9.738;2022-08-01T14:23:54;25.00;57.10
7606;DHT22;3844;53.360;9.738;2022-08-01T14:25:55;25.10;56.70
7606;DHT22;3844;53.360;9.738;2022-08-01T14:27:55;25.20;56.50
7606;DHT22;3844;53.360;9.738;2022-08-01T14:29:56;25.00;55.60
7606;DHT22;3844;53.360;9.738;2022-08-01T14:31:57;24.70;56.40
7606;DHT22;3844;53.360;9.738;2022-08-01T14:33:58;24.60;57.80
7606;DHT22;3844;53.360;9.738;2022-08-01T14:35:58;24.70;57.80
7606;DHT22;3844;53.360;9.738;2022-08-01T14:37:59;24.80;57.00
7606;DHT22;3844;53.360;9.738;2022-08-01T14:40:00;24.80;57.20
7606;DHT22;3844;53.360;9.738;2022-08-01T14:42:05;24.80;57.30
7606;DHT22;3844;53.360;9.738;2022-08-01T14:44:05;24.70;56.10
7606;DHT22;3844;53.360;9.738;2022-08-01T14:46:06;24.60;57.80